Terminal Aerodrome Forecast
Issued by NWS

Home | Current Version | Previous Version | Text Only | Print | Product List | Glossary On
Versions: 1 2 3 4 5 6 7 8 9 10 11 12 13 14 15
000
FTUS41 KCAR 191100
TAFPQI
TAF
KPQI 191124Z 1912/2012 20004KT P6SM -SHSN SCT020 OVC050
     FM191400 29006KT P6SM OVC025
     FM191700 32012G22KT P6SM SCT025 OVC035
     FM200200 33007KT P6SM BKN060
      AMD LTD TO CLD VIS AND WIND=

USA.gov is the U.S. government's official web portal to all federal, state and local government web resources and services.